Albers, IL

11:43 PM CDT on September 02, 2014 (GMT -0500)
SW of Aviston | Change Station
CLOSE
Current Station
Personal Weather Station
Location: Aviston, IL
Elevation: 465 ft
Nearby Weather Stations

Elev 465 ft 38.59 °N, 89.64 °W | Updated 3 seconds ago

Clear
Clear
68.5 °F
Feels Like 68.5 °F
N
0.0
Wind Variable Wind from NW
Gusts 0.0 mph

Today
High -- | Low -- °F
--% Chance of Precip.
Yesterday
High -- | Low -- °F
Precip. -- in
6:28 AM 7:26 PM
First Quarter, 58% visible
Pressure 30.03 in
Visibility 0.5 miles
Clouds Clear
Dew Point 67 °F
Humidity 95%
Rainfall 2.18 in
Snow Depth Not available.
UV 0 out of 12
Pollen 6.50 out of 12
Ozone Good
PM2.5 Good
Flu Activity Not available.
SPECI KBLV 030438Z AUTO 00000KT 1/2SM R32R/1200FT FG CLR 19/19 A3003 RMK AO2

More Conditions Fewer Conditions

Pressure 30.03 in
Visibility 0.5 miles
Clouds Clear
Dew Point 67 °F
Humidity 95%
Rainfall 2.18 in
Snow Depth Not available.
UV 0 out of 12
Pollen 6.50 out of 12
Ozone Good
PM2.5 Good
Flu Activity Not available.
SPECI KBLV 030438Z AUTO 00000KT 1/2SM R32R/1200FT FG CLR 19/19 A3003 RMK AO2

More Conditions Fewer Conditions

10-Day Weather Forecast

Almanac

Astronomy

Sep. 02, 2014 Rise Set
Actual Time 6:28 AM CDT 7:26 PM CDT
Civil Twilight 6:01 AM CDT 7:53 PM CDT
Nautical Twilight 5:29 AM CDT 8:26 PM CDT
Astronomical Twilight 4:55 AM CDT 8:59 PM CDT
Moon 2:07 PM CDT (9/2) No Moon Set
Length of Visible Light 13h 52m
Length of Day
12h 58m
Tomorrow will be 2m 24s shorter.
First Quarter, 58% of the Moon is Illuminated
Sep 3
First Quarter
Sep 8
Full
Sep 15
Last Quarter
Sep 24
New
Oct 1
First Quarter

Yesterday's Extremes

State Highs State Lows

Community

WunderPhotos

Upload Photos

1,749,875 photos uploaded!

Nearby

Air Quality

  Air Quality AQ Index Pollutant
Yesterday Good
OZONE
Yesterday Good
PM2.5
Current Good
PM2.5
Current Good
OZONE
Tuesday Good
PM2.5
Tuesday Good
OZONE
Wednesday Moderate
PM2.5
Wednesday Good
OZONE
Thursday Moderate
PM2.5
Thursday Moderate
OZONE
Friday Moderate
PM2.5
Friday Good
OZONE
Saturday Good
PM2.5
Saturday Good
OZONE
Sunday Good
PM2.5
Sunday Good
OZONE

Snow Depth

Station Depth Elevation
No new snow has been reported.

Earthquake Activity

City Distance Mag. Time & Date
No recent earthquake activity has been reported nearby.
Minimum magnitude displayed is 2.5.

Coastal Water Temperatures

Place Temperature
No Stations Reporting

Nearby Weather Stations